createdAt,value
2022-08-14T00:02:27.105Z,101796.19
2022-08-14T00:04:55.259Z,101792.72
2022-08-14T00:07:22.516Z,101791.69
2022-08-14T00:10:01.589Z,101787.38
2022-08-14T00:12:42.119Z,101779.63
2022-08-14T00:15:43.643Z,101789.47
2022-08-14T00:18:14.842Z,101780.66
2022-08-14T00:21:01.960Z,101777.41
2022-08-14T00:23:30.887Z,101778.25
2022-08-14T00:26:05.711Z,101770.56
2022-08-14T00:28:36.991Z,101757.72
2022-08-14T00:31:08.015Z,101770.84
2022-08-14T00:33:50.815Z,101770.31
2022-08-14T00:36:34.911Z,101789.56
2022-08-14T00:39:18.295Z,101783.44
2022-08-14T00:41:47.781Z,101783.44
2022-08-14T00:44:26.575Z,101772.72
2022-08-14T00:46:54.800Z,101758.41
2022-08-14T00:49:26.175Z,101775.84
2022-08-14T00:51:54.799Z,101762.69
2022-08-14T00:54:24.236Z,101758.56
2022-08-14T00:56:55.265Z,101756.91
2022-08-14T00:59:28.536Z,101764.09
2022-08-14T01:01:59.833Z,101753.91
2022-08-14T01:04:51.458Z,101758.50
2022-08-14T01:07:21.740Z,101752.69
2022-08-14T01:10:01.796Z,101740.25
2022-08-14T01:12:30.006Z,101738.38
2022-08-14T01:15:02.054Z,101759.44
2022-08-14T01:17:51.933Z,101754.84
2022-08-14T01:20:41.754Z,101752.38
2022-08-14T01:23:16.311Z,101750.97
2022-08-14T01:25:51.514Z,101750.97
2022-08-14T01:28:34.262Z,101749.25
2022-08-14T01:31:19.012Z,101736.22
2022-08-14T01:34:00.299Z,101740.69
2022-08-14T01:36:39.284Z,101740.09
2022-08-14T01:39:17.260Z,101743.56
2022-08-14T01:41:49.992Z,101745.47
2022-08-14T01:44:33.261Z,101734.75
2022-08-14T01:47:12.139Z,101737.50
2022-08-14T01:49:45.942Z,101735.78
2022-08-14T01:52:34.067Z,101729.56
2022-08-14T01:55:01.527Z,101723.84
2022-08-14T01:57:49.196Z,101718.13
2022-08-14T02:00:16.732Z,101718.13
2022-08-14T02:02:46.586Z,101728.13
2022-08-14T02:05:14.657Z,101716.81
2022-08-14T02:07:55.418Z,101725.72
2022-08-14T02:10:26.080Z,101727.69
2022-08-14T02:12:54.439Z,101726.03
2022-08-14T02:15:25.755Z,101732.25
2022-08-14T02:17:53.560Z,101683.75
2022-08-14T02:20:23.607Z,101730.34
2022-08-14T02:22:54.815Z,101723.03
2022-08-14T02:25:23.057Z,101723.91
2022-08-14T02:28:24.452Z,101707.06
2022-08-14T02:30:38.218Z,101721.16
2022-08-14T02:33:07.559Z,101708.97
2022-08-14T02:35:40.678Z,101700.00
2022-08-14T02:38:11.695Z,101708.81
2022-08-14T02:40:39.268Z,101699.41
2022-08-14T02:43:08.718Z,101701.72
2022-08-14T02:45:38.886Z,101695.41
2022-08-14T02:49:03.568Z,101697.41
2022-08-14T02:51:12.593Z,101721.19
2022-08-14T02:53:46.461Z,101717.63
2022-08-14T02:56:30.710Z,101708.59
2022-08-14T02:59:07.843Z,101710.25
2022-08-14T03:01:43.303Z,101703.19
2022-08-14T03:04:14.078Z,101702.06
2022-08-14T03:06:57.888Z,101696.81
2022-08-14T03:09:41.842Z,101696.25
2022-08-14T03:12:27.235Z,101701.13
2022-08-14T03:15:09.100Z,101701.88
2022-08-14T03:17:57.092Z,101699.22
2022-08-14T03:20:28.651Z,101696.72
2022-08-14T03:23:03.132Z,101692.66
2022-08-14T03:25:33.620Z,101697.47
2022-08-14T03:28:14.802Z,101699.28
2022-08-14T03:30:59.893Z,101700.16
2022-08-14T03:33:37.832Z,101692.28
2022-08-14T03:37:51.400Z,101681.84
2022-08-14T03:39:12.265Z,101677.53
2022-08-14T03:41:45.431Z,101676.81
2022-08-14T03:45:18.578Z,101679.25
2022-08-14T03:47:03.069Z,101673.06
2022-08-14T03:49:50.459Z,101640.22
2022-08-14T03:52:55.572Z,101671.16
2022-08-14T03:55:12.090Z,101656.94
2022-08-14T03:57:40.931Z,101660.28
2022-08-14T04:00:40.628Z,101640.84
2022-08-14T04:03:02.562Z,101659.97
2022-08-14T04:05:29.727Z,101646.63
2022-08-14T04:08:22.999Z,101642.22
2022-08-14T04:10:58.072Z,101639.47
2022-08-14T04:13:27.697Z,101637.22
2022-08-14T04:16:01.369Z,101641.13
2022-08-14T04:18:30.520Z,101633.94
2022-08-14T04:20:58.552Z,101640.16
2022-08-14T04:23:29.936Z,101635.78
2022-08-14T04:26:08.613Z,101643.78
2022-08-14T04:29:07.590Z,101644.53
2022-08-14T04:33:01.605Z,101646.34
2022-08-14T04:34:20.913Z,101632.03
2022-08-14T04:37:21.893Z,101647.56
2022-08-14T04:40:12.464Z,101645.50
2022-08-14T04:43:00.116Z,101649.56
2022-08-14T04:45:36.338Z,101641.19
2022-08-14T04:48:31.573Z,101651.06
2022-08-14T04:51:05.268Z,101651.56
2022-08-14T04:53:34.870Z,101645.94
2022-08-14T04:56:10.852Z,101637.78
2022-08-14T04:59:01.619Z,101632.66
2022-08-14T05:01:29.313Z,101636.94
2022-08-14T05:04:08.279Z,101641.00
2022-08-14T05:06:38.958Z,101644.38
2022-08-14T05:09:08.257Z,101614.34
2022-08-14T05:11:42.395Z,101624.91
2022-08-14T05:14:33.021Z,101615.41
2022-08-14T05:17:01.519Z,101631.00
2022-08-14T05:19:29.835Z,101644.56
2022-08-14T05:22:16.433Z,101640.63
2022-08-14T05:24:50.665Z,101638.28
2022-08-14T05:27:22.880Z,101634.25
2022-08-14T05:29:57.047Z,101632.16
2022-08-14T05:32:27.431Z,101614.91
2022-08-14T05:34:58.496Z,101624.47
2022-08-14T05:37:28.291Z,101626.97
2022-08-14T05:39:58.367Z,101630.63
2022-08-14T05:42:46.703Z,101633.22
2022-08-14T05:45:20.552Z,101629.28
2022-08-14T05:47:50.817Z,101622.72
2022-08-14T05:50:19.926Z,101622.63
2022-08-14T05:53:02.329Z,101609.94
2022-08-14T05:55:32.344Z,101624.88
2022-08-14T05:58:09.333Z,101578.16
2022-08-14T06:00:42.814Z,101609.16
2022-08-14T06:03:17.018Z,101604.72
2022-08-14T06:05:48.514Z,101614.16
2022-08-14T06:08:41.107Z,101608.00
2022-08-14T06:11:10.385Z,101610.19
2022-08-14T06:13:44.893Z,101613.72
2022-08-14T06:16:18.777Z,101611.63
2022-08-14T06:18:52.518Z,101604.09
2022-08-14T06:21:22.673Z,101596.06
2022-08-14T06:23:50.563Z,101612.59
2022-08-14T06:26:21.247Z,101609.81
2022-08-14T06:28:52.164Z,101615.50
2022-08-14T06:31:21.240Z,101612.34
2022-08-14T06:35:04.236Z,101605.56
2022-08-14T06:36:37.962Z,101593.53
2022-08-14T06:39:09.839Z,101577.66
2022-08-14T06:41:58.772Z,101589.38
2022-08-14T06:44:32.482Z,101583.91
2022-08-14T06:47:04.802Z,101587.16
2022-08-14T06:49:40.019Z,101589.28
2022-08-14T06:52:11.177Z,101592.41
2022-08-14T06:54:43.569Z,101575.88
2022-08-14T06:57:12.484Z,101590.69
2022-08-14T06:59:41.026Z,101580.34
2022-08-14T07:02:29.062Z,101582.72
2022-08-14T07:05:21.041Z,101584.88
2022-08-14T07:07:51.046Z,101587.75
2022-08-14T07:10:18.172Z,101588.06
2022-08-14T07:13:01.551Z,101590.44
2022-08-14T07:15:39.916Z,101574.91
2022-08-14T07:18:10.654Z,101570.81
2022-08-14T07:20:39.248Z,101551.22
2022-08-14T07:23:21.042Z,101569.13
2022-08-14T07:25:51.689Z,101561.69
2022-08-14T07:28:30.006Z,101558.69
2022-08-14T07:31:04.744Z,101559.41
2022-08-14T07:33:46.670Z,101562.09
2022-08-14T07:36:30.241Z,101558.44
2022-08-14T07:39:03.123Z,101555.31
2022-08-14T07:41:35.587Z,101551.94
2022-08-14T07:44:28.868Z,101558.78
2022-08-14T07:46:51.151Z,101554.03
2022-08-14T07:49:19.866Z,101543.91
2022-08-14T07:51:49.627Z,101558.09
2022-08-14T07:54:23.200Z,101553.34
2022-08-14T07:57:06.312Z,101549.78
2022-08-14T07:59:44.505Z,101559.38
2022-08-14T08:02:19.297Z,101557.66
2022-08-14T08:04:59.057Z,101555.69
2022-08-14T08:07:31.421Z,101544.94
2022-08-14T08:10:02.602Z,101548.34
2022-08-14T08:12:32.383Z,101548.75
2022-08-14T08:15:02.587Z,101549.59
2022-08-14T08:17:42.332Z,101552.66
2022-08-14T08:20:20.870Z,101547.19
2022-08-14T08:22:55.574Z,101534.06
2022-08-14T08:25:30.544Z,101541.56
2022-08-14T08:28:25.375Z,101543.03
2022-08-14T08:31:04.342Z,101537.41
2022-08-14T08:33:37.033Z,101535.22
2022-08-14T08:36:13.043Z,101533.16
2022-08-14T08:39:18.308Z,101530.84
2022-08-14T08:41:49.501Z,101528.38
2022-08-14T08:44:32.342Z,101517.59
2022-08-14T08:47:07.681Z,101517.72
2022-08-14T08:49:43.044Z,101509.31
2022-08-14T08:52:25.585Z,101510.50
2022-08-14T08:54:58.634Z,101506.09
2022-08-14T08:57:26.136Z,101511.03
2022-08-14T08:59:55.024Z,101514.44
2022-08-14T09:02:26.043Z,101501.47
2022-08-14T09:05:04.245Z,101509.69
2022-08-14T09:07:31.737Z,101508.31
2022-08-14T09:10:00.546Z,101510.63
2022-08-14T09:12:32.233Z,101502.03
2022-08-14T09:15:11.942Z,101501.88
2022-08-14T09:17:44.241Z,101507.50
2022-08-14T09:20:14.079Z,101503.44
2022-08-14T09:22:55.606Z,101499.63
2022-08-14T09:26:00.021Z,101494.97
2022-08-14T09:28:11.213Z,101486.97
2022-08-14T09:30:45.738Z,101472.75
2022-08-14T09:33:36.825Z,101496.50
2022-08-14T09:36:53.894Z,101487.34
2022-08-14T09:40:03.856Z,101485.84
2022-08-14T09:43:22.709Z,101477.03
2022-08-14T09:45:53.451Z,101468.06
2022-08-14T09:48:29.376Z,101483.03
2022-08-14T09:54:18.643Z,101472.66
2022-08-14T09:56:46.333Z,101467.59
2022-08-14T09:59:25.076Z,101462.06
2022-08-14T10:01:53.436Z,101454.94
2022-08-14T10:04:33.510Z,101468.41
2022-08-14T10:07:05.308Z,101453.19
2022-08-14T10:09:35.152Z,101461.03
2022-08-14T10:12:04.743Z,101445.38
2022-08-14T10:14:37.007Z,101451.94
2022-08-14T10:17:08.601Z,101456.50
2022-08-14T10:19:48.167Z,101437.97
2022-08-14T10:23:12.709Z,101433.59
2022-08-14T10:25:16.004Z,101441.25
2022-08-14T10:27:51.061Z,101432.44
2022-08-14T10:30:34.942Z,101432.47
2022-08-14T10:33:01.991Z,101427.94
2022-08-14T10:35:47.881Z,101421.16
2022-08-14T10:38:31.538Z,101419.75
2022-08-14T10:41:17.118Z,101407.69
2022-08-14T10:44:04.996Z,101417.34
2022-08-14T10:47:39.596Z,101404.25
2022-08-14T10:49:28.655Z,101402.41
2022-08-14T10:52:01.864Z,101403.28
2022-08-14T10:54:40.227Z,101402.16
2022-08-14T10:57:20.122Z,101391.63
2022-08-14T11:00:12.609Z,101391.81
2022-08-14T11:02:54.070Z,101401.19
2022-08-14T11:05:27.018Z,101392.00
2022-08-14T11:07:56.580Z,101396.28
2022-08-14T11:10:39.930Z,101384.47
2022-08-14T11:13:16.533Z,101339.72
2022-08-14T11:15:46.383Z,101372.94
2022-08-14T11:18:20.279Z,101374.50
2022-08-14T11:21:00.703Z,101375.53
2022-08-14T11:23:37.744Z,101368.28
2022-08-14T11:26:08.035Z,101368.28
2022-08-14T11:28:47.708Z,101362.00
2022-08-14T11:31:23.547Z,101360.88
2022-08-14T11:33:57.907Z,101358.72
2022-08-14T11:37:02.919Z,101324.00
2022-08-14T11:39:34.508Z,101348.38
2022-08-14T11:42:57.878Z,101349.63
2022-08-14T11:45:11.397Z,101345.06
2022-08-14T11:48:13.160Z,101346.78
2022-08-14T11:50:37.253Z,101329.56
2022-08-14T11:53:08.634Z,101342.94
2022-08-14T11:55:39.329Z,101344.94
2022-08-14T11:58:12.014Z,101331.41
2022-08-14T12:00:53.765Z,101330.44
2022-08-14T12:03:38.104Z,101324.03
2022-08-14T12:06:28.477Z,101288.16
2022-08-14T12:09:01.878Z,101323.72
2022-08-14T12:11:44.054Z,101331.84
2022-08-14T12:14:34.925Z,101319.03
2022-08-14T12:17:12.221Z,101324.88
2022-08-14T12:20:03.010Z,101315.59
2022-08-14T12:22:37.024Z,101318.47
2022-08-14T12:25:20.229Z,101312.75
2022-08-14T12:27:59.465Z,101309.66
2022-08-14T12:30:45.298Z,101296.97
2022-08-14T12:33:33.057Z,101305.94
2022-08-14T12:36:10.048Z,101295.97
2022-08-14T12:38:43.572Z,101278.03
2022-08-14T12:41:21.259Z,101284.00
2022-08-14T12:44:09.831Z,101284.16
2022-08-14T12:46:43.328Z,101267.50
2022-08-14T12:49:13.428Z,101268.09
2022-08-14T12:51:56.633Z,101266.78
2022-08-14T12:54:28.548Z,101268.22
2022-08-14T12:57:42.132Z,101265.78
2022-08-14T13:00:23.823Z,101258.97
2022-08-14T13:02:56.580Z,101243.16
2022-08-14T13:05:38.215Z,101244.00
2022-08-14T13:08:10.646Z,101258.41
2022-08-14T13:10:59.201Z,101247.28
2022-08-14T13:13:34.737Z,101252.59
2022-08-14T13:16:20.396Z,101243.72
2022-08-14T13:18:58.348Z,101238.31
2022-08-14T13:21:27.447Z,101228.22
2022-08-14T13:23:56.788Z,101227.91
2022-08-14T13:26:28.114Z,101209.41
2022-08-14T13:29:02.020Z,101224.66
2022-08-14T13:31:34.577Z,101219.63
2022-08-14T13:34:03.344Z,101213.81
2022-08-14T13:36:54.402Z,101212.22
2022-08-14T13:39:23.310Z,101196.44
2022-08-14T13:41:55.578Z,101201.97
2022-08-14T13:44:27.567Z,101198.84
2022-08-14T13:46:54.736Z,101194.72
2022-08-14T13:49:23.913Z,101200.31
2022-08-14T13:51:58.842Z,101160.75
2022-08-14T13:54:32.749Z,101191.16
2022-08-14T13:57:03.663Z,101203.16
2022-08-14T13:59:38.173Z,101199.16
2022-08-14T14:02:08.788Z,101191.59
2022-08-14T14:04:43.299Z,101191.03
2022-08-14T14:07:21.754Z,101172.84
2022-08-14T14:09:55.199Z,101181.56
2022-08-14T14:12:37.554Z,101184.41
2022-08-14T14:15:12.655Z,101184.13
2022-08-14T14:17:44.119Z,101189.69
2022-08-14T14:20:34.246Z,101187.25
2022-08-14T14:23:11.683Z,101179.56
2022-08-14T14:25:46.041Z,101183.59
2022-08-14T14:28:24.022Z,101176.75
2022-08-14T14:30:57.316Z,101180.03
2022-08-14T14:33:46.687Z,101129.66
2022-08-14T14:36:26.632Z,101176.75
2022-08-14T14:39:04.533Z,101168.78
2022-08-14T14:41:44.080Z,101167.38
2022-08-14T14:44:16.136Z,101173.16
2022-08-14T14:46:50.139Z,101177.03
2022-08-14T14:49:21.979Z,101170.34
2022-08-14T14:51:52.387Z,101168.94
2022-08-14T14:54:30.995Z,101165.06
2022-08-14T14:57:09.296Z,101164.81
2022-08-14T14:59:38.205Z,101162.50
2022-08-14T15:02:09.094Z,101160.66
2022-08-14T15:04:43.392Z,101161.50
2022-08-14T15:07:12.556Z,101158.25
2022-08-14T15:09:41.098Z,101159.38
2022-08-14T15:12:34.191Z,101162.50
2022-08-14T15:15:08.471Z,101161.19
2022-08-14T15:17:41.692Z,101156.19
2022-08-14T15:20:29.794Z,101149.38
2022-08-14T15:23:11.679Z,101149.66
2022-08-14T15:25:42.185Z,101151.81
2022-08-14T15:28:12.714Z,101154.50
2022-08-14T15:30:46.192Z,101153.66
2022-08-14T15:34:13.435Z,101110.69
2022-08-14T15:36:35.102Z,101143.97
2022-08-14T15:39:07.127Z,101153.34
2022-08-14T15:41:41.388Z,101140.84
2022-08-14T15:44:18.847Z,101134.19
2022-08-14T15:46:58.313Z,101129.75
2022-08-14T15:49:34.827Z,101139.00
2022-08-14T15:52:04.688Z,101129.63
2022-08-14T15:54:34.230Z,101121.81
2022-08-14T15:57:08.273Z,101117.13
2022-08-14T15:59:56.436Z,101125.22
2022-08-14T16:02:27.566Z,101123.53
2022-08-14T16:04:56.431Z,101128.06
2022-08-14T16:07:27.679Z,101118.69
2022-08-14T16:10:18.625Z,101122.38
2022-08-14T16:12:47.403Z,101116.09
2022-08-14T16:15:16.990Z,101128.59
2022-08-14T16:17:48.512Z,101124.31
2022-08-14T16:20:42.445Z,101117.47
2022-08-14T16:23:10.388Z,101126.00
2022-08-14T16:25:43.792Z,101121.88
2022-08-14T16:28:27.804Z,101120.31
2022-08-14T16:30:56.230Z,101111.00
2022-08-14T16:33:56.411Z,101105.19
2022-08-14T16:36:31.570Z,101103.63
2022-08-14T16:39:02.681Z,101112.69
2022-08-14T16:41:30.875Z,101107.56
2022-08-14T16:44:06.033Z,101108.41
2022-08-14T16:46:57.147Z,101107.72
2022-08-14T16:50:03.445Z,101109.81
2022-08-14T16:52:25.794Z,101104.00
2022-08-14T16:55:07.234Z,101102.56
2022-08-14T16:57:47.475Z,101105.50
2022-08-14T17:00:43.680Z,101093.09
2022-08-14T17:03:36.881Z,101094.81
2022-08-14T17:06:30.741Z,101099.03
2022-08-14T17:08:57.505Z,101098.63
2022-08-14T17:11:27.907Z,101096.28
2022-08-14T17:14:00.591Z,101088.75
2022-08-14T17:16:35.694Z,101073.81
2022-08-14T17:19:05.547Z,101083.72
2022-08-14T17:21:38.178Z,101085.69
2022-08-14T17:24:57.594Z,101085.69
2022-08-14T17:27:04.444Z,101083.84
2022-08-14T17:29:56.152Z,101080.72
2022-08-14T17:32:55.413Z,101076.56
2022-08-14T17:35:38.993Z,101094.06
2022-08-14T17:38:38.703Z,101079.00
2022-08-14T17:41:27.030Z,101084.78
2022-08-14T17:46:43.384Z,101082.03
2022-08-14T17:49:15.296Z,101080.72
2022-08-14T17:52:17.026Z,101079.28
2022-08-14T17:54:52.632Z,101092.31
2022-08-14T17:57:23.166Z,101084.97
2022-08-14T17:59:52.861Z,101079.50
2022-08-14T18:02:31.591Z,101086.00
2022-08-14T18:05:03.052Z,101084.53
2022-08-14T18:07:50.450Z,101062.34
2022-08-14T18:10:52.660Z,101084.88
2022-08-14T18:13:10.750Z,101095.13
2022-08-14T18:15:44.996Z,101098.59
2022-08-14T18:18:19.386Z,101111.94
2022-08-14T18:21:42.736Z,101106.94
2022-08-14T18:23:41.987Z,101102.31
2022-08-14T18:26:37.020Z,101104.16
2022-08-14T18:29:00.286Z,101103.06
2022-08-14T18:31:41.930Z,101100.59
2022-08-14T18:34:31.653Z,101095.84
2022-08-14T18:37:16.880Z,101087.06
2022-08-14T18:40:02.062Z,101090.38
2022-08-14T18:42:34.574Z,101092.34
2022-08-14T18:45:12.932Z,101095.66
2022-08-14T18:50:32.383Z,101081.31
2022-08-14T18:53:11.007Z,101086.69
2022-08-14T18:55:47.661Z,101079.47
2022-08-14T18:58:33.999Z,101087.53
2022-08-14T19:01:04.438Z,101088.16
2022-08-14T19:03:36.483Z,101085.97
2022-08-14T19:06:08.881Z,101078.72
2022-08-14T19:08:42.742Z,101087.75
2022-08-14T19:11:32.034Z,101091.75
2022-08-14T19:14:04.973Z,101068.03
2022-08-14T19:16:42.809Z,101086.38
2022-08-14T19:19:12.663Z,101083.56
2022-08-14T19:21:57.327Z,101090.06
2022-08-14T19:24:33.669Z,101094.88
2022-08-14T19:27:26.136Z,101090.94
2022-08-14T19:30:19.674Z,101090.44
2022-08-14T19:32:52.295Z,101088.97
2022-08-14T19:35:24.438Z,101093.47
2022-08-14T19:37:56.981Z,101095.53
2022-08-14T19:40:41.995Z,101100.41
2022-08-14T19:43:55.484Z,101094.41
2022-08-14T19:46:39.513Z,101088.66
2022-08-14T19:49:00.338Z,101085.69
2022-08-14T19:51:32.687Z,101080.09
2022-08-14T19:54:13.507Z,101093.59
2022-08-14T19:56:45.604Z,101085.91
2022-08-14T19:59:19.244Z,101082.28
2022-08-14T20:01:52.402Z,101085.91
2022-08-14T20:04:45.805Z,101091.78
2022-08-14T20:07:59.246Z,101092.75
2022-08-14T20:11:03.117Z,101088.38
2022-08-14T20:13:32.219Z,101100.31
2022-08-14T20:16:12.534Z,101046.28
2022-08-14T20:18:50.103Z,101081.00
2022-08-14T20:21:18.641Z,101071.59
2022-08-14T20:23:48.108Z,101068.06
2022-08-14T20:26:31.768Z,101060.56
2022-08-14T20:29:04.634Z,101069.66
2022-08-14T20:31:36.461Z,101068.91
2022-08-14T20:34:25.033Z,101066.50
2022-08-14T20:37:26.241Z,101060.47
2022-08-14T20:39:55.649Z,101064.34
2022-08-14T20:42:43.649Z,101048.84
2022-08-14T20:45:21.376Z,101055.16
2022-08-14T20:48:07.445Z,101044.78
2022-08-14T20:50:45.174Z,101032.94
2022-08-14T20:53:36.013Z,101027.56
2022-08-14T20:56:28.529Z,101032.69
2022-08-14T20:58:58.097Z,101032.38
2022-08-14T21:01:32.492Z,101039.34
2022-08-14T21:04:05.072Z,101042.16
2022-08-14T21:07:23.939Z,101044.94
2022-08-14T21:10:03.248Z,101043.31
2022-08-14T21:12:33.769Z,101041.66
2022-08-14T21:15:11.069Z,101036.28
2022-08-14T21:17:41.654Z,101018.91
2022-08-14T21:20:25.918Z,101022.34
2022-08-14T21:22:56.412Z,101021.16
2022-08-14T21:25:23.736Z,101028.34
2022-08-14T21:27:57.327Z,101020.19
2022-08-14T21:30:51.364Z,101007.13
2022-08-14T21:33:20.577Z,101012.38
2022-08-14T21:35:54.762Z,101014.31
2022-08-14T21:38:33.749Z,101020.63
2022-08-14T21:41:41.323Z,101014.50
2022-08-14T21:44:17.859Z,101018.41
2022-08-14T21:46:56.277Z,101006.41
2022-08-14T21:49:34.134Z,101000.19
2022-08-14T21:52:51.280Z,101010.59
2022-08-14T21:55:09.229Z,101005.28
2022-08-14T21:58:03.842Z,101003.72
2022-08-14T22:00:39.682Z,100994.06
2022-08-14T22:03:19.138Z,100989.56
2022-08-14T22:05:55.954Z,100989.03
2022-08-14T22:08:26.777Z,100992.69
2022-08-14T22:10:55.394Z,100987.56
2022-08-14T22:13:26.651Z,100979.22
2022-08-14T22:15:59.774Z,100979.66
2022-08-14T22:18:30.105Z,100982.34
2022-08-14T22:20:58.234Z,100985.66
2022-08-14T22:23:26.497Z,100969.78
2022-08-14T22:25:55.488Z,100972.38
2022-08-14T22:28:33.030Z,100974.28
2022-08-14T22:31:03.988Z,100973.44
2022-08-14T22:33:40.295Z,100965.50
2022-08-14T22:36:33.651Z,100966.38
2022-08-14T22:39:03.043Z,100952.38
2022-08-14T22:41:43.229Z,100963.78
2022-08-14T22:44:20.935Z,100952.56
2022-08-14T22:46:48.768Z,100962.13
2022-08-14T22:50:31.284Z,100955.91
2022-08-14T22:52:31.750Z,100960.41
2022-08-14T22:55:05.885Z,100948.94
2022-08-14T22:57:37.571Z,100930.84
2022-08-14T23:00:25.350Z,100933.00
2022-08-14T23:03:17.149Z,100937.72
2022-08-14T23:05:52.769Z,100921.56
2022-08-14T23:08:58.411Z,100933.03
2022-08-14T23:11:12.248Z,100936.03
2022-08-14T23:13:46.337Z,100926.69
2022-08-14T23:16:20.023Z,100920.38
2022-08-14T23:18:53.506Z,100912.56
2022-08-14T23:21:24.247Z,100911.06
2022-08-14T23:23:55.605Z,100914.91
2022-08-14T23:26:48.148Z,100908.56
2022-08-14T23:29:18.073Z,100902.16
2022-08-14T23:31:45.225Z,100904.06
2022-08-14T23:34:20.673Z,100883.78
2022-08-14T23:36:56.633Z,100900.88
2022-08-14T23:39:32.195Z,100895.53
2022-08-14T23:42:06.182Z,100897.47
2022-08-14T23:44:37.687Z,100902.91
2022-08-14T23:47:25.653Z,100903.16
2022-08-14T23:50:03.175Z,100900.59
2022-08-14T23:52:50.187Z,100894.47
2022-08-14T23:55:28.268Z,100885.50
2022-08-14T23:57:58.973Z,100898.75
